Quick Links (Output Below):   Max & Min Temps   /   Climate Reports   /   Zone Forecasts
River Forecasts   /   Forestry Forecasts   /   Aviation Forecasts   /   Radars   /   Features

Terminal Aerodrome Forecast (Mountain Home)

Pick a Site:
Arkadelphia | El Dorado | Fayetteville | Fort Smith | Harrison | Highfill | Hot Springs | Jonesboro
Little Rock | Monticello | Mountain Home | Pine Bluff | Texarkana
 Forecast 

KBPK 022331Z 0300/0324 00000KT P6SM SCT250
     FM031500 23004KT P6SM SCT060 SCT250=


 Latest METARs (Observations) 
How to Decode METARs
00Z KBPK 022353Z AUTO 00000KT 10SM CLR 30/21 A2990 RMK AO2 SLP114
         T03000206 10333 20300 58010
         
***** Today's Observations (Above) *****


23Z KBPK 022253Z AUTO 00000KT 10SM CLR 33/19 A2991 RMK AO2 SLP117
         T03330189
         
22Z KBPK 022153Z AUTO 00000KT 10SM CLR 32/19 A2992 RMK AO2 SLP121
         T03220189
         
21Z KBPK 022053Z AUTO VRB04KT 10SM CLR 32/19 A2993 RMK AO2 SLP124
         T03220189 57015
         
20Z KBPK 021953Z AUTO 18005KT 10SM CLR 32/19 A2995 RMK AO2 SLP130
         T03220194
         
19Z KBPK 021853Z AUTO VRB04KT 10SM CLR 33/19 A2996 RMK AO2 SLP132
         T03280189
         
18Z KBPK 021753Z AUTO VRB03KT 10SM CLR 31/19 A2998 RMK AO2 SLP138
         T03110194 10311 20206 58010
         
17Z KBPK 021653Z AUTO 00000KT 10SM CLR 31/21 A2999 RMK AO2 SLP143
         T03060206
         
16Z KBPK 021553Z AUTO VRB03KT 10SM CLR 29/21 A3000 RMK AO2 SLP149
         T02890206
         
15Z KBPK 021453Z AUTO 00000KT 10SM CLR 27/20 A3001 RMK AO2 SLP150
         T02720200 50007
         
***** Yesterday's Observations (Above) *****


Back to Main Page
http://www.srh.noaa.gov/lzk/qfcst.php

USA.gov is the U.S. government's official web portal to all federal, state and local government web resources and services.